createdAt,value
2023-05-15T00:02:33.860Z,2.35
2023-05-15T00:05:08.514Z,2.70
2023-05-15T00:07:42.253Z,2.35
2023-05-15T00:10:15.504Z,2.67
2023-05-15T00:12:48.705Z,2.20
2023-05-15T00:15:23.513Z,2.72
2023-05-15T00:17:56.962Z,2.38
2023-05-15T00:20:30.316Z,2.40
2023-05-15T00:23:03.531Z,2.70
2023-05-15T00:25:36.742Z,2.25
2023-05-15T00:28:09.933Z,2.38
2023-05-15T00:30:44.550Z,2.20
2023-05-15T00:33:17.736Z,2.42
2023-05-15T00:35:51.007Z,2.88
2023-05-15T00:38:24.212Z,3.08
2023-05-15T00:40:57.859Z,2.67
2023-05-15T00:43:32.070Z,2.60
2023-05-15T00:46:08.418Z,2.55
2023-05-15T00:48:43.301Z,2.40
2023-05-15T00:51:16.983Z,3.00
2023-05-15T00:53:52.374Z,2.65
2023-05-15T00:56:28.456Z,2.45
2023-05-15T00:59:03.604Z,2.67
2023-05-15T01:01:38.378Z,2.67
2023-05-15T01:04:11.764Z,2.50
2023-05-15T01:06:45.017Z,2.45
2023-05-15T01:09:20.166Z,2.40
2023-05-15T01:11:58.543Z,2.15
2023-05-15T01:14:32.273Z,2.35
2023-05-15T01:17:07.563Z,2.70
2023-05-15T01:19:42.811Z,2.10
2023-05-15T01:22:45.557Z,2.30
2023-05-15T01:25:45.783Z,2.67
2023-05-15T01:28:27.088Z,2.22
2023-05-15T01:31:06.783Z,2.60
2023-05-15T01:33:46.928Z,2.53
2023-05-15T01:36:25.871Z,2.45
2023-05-15T01:39:03.068Z,2.17
2023-05-15T01:41:42.777Z,3.08
2023-05-15T01:44:21.001Z,2.25
2023-05-15T01:46:58.701Z,2.17
2023-05-15T01:49:33.468Z,2.45
2023-05-15T01:52:11.142Z,2.08
2023-05-15T01:54:45.627Z,2.55
2023-05-15T01:57:19.987Z,2.72
2023-05-15T01:59:56.301Z,2.42
2023-05-15T02:02:31.875Z,2.35
2023-05-15T02:05:06.641Z,2.33
2023-05-15T02:07:40.219Z,2.45
2023-05-15T02:10:14.512Z,3.30
2023-05-15T02:12:52.811Z,2.55
2023-05-15T02:15:30.650Z,2.72
2023-05-15T02:18:04.242Z,2.67
2023-05-15T02:20:37.508Z,2.75
2023-05-15T02:23:11.145Z,2.40
2023-05-15T02:25:51.275Z,2.65
2023-05-15T02:28:30.394Z,2.35
2023-05-15T02:31:11.457Z,2.35
2023-05-15T02:33:52.030Z,2.70
2023-05-15T02:36:31.460Z,2.50
2023-05-15T02:39:05.109Z,2.45
2023-05-15T02:41:38.940Z,2.50
2023-05-15T02:46:49.203Z,2.30
2023-05-15T02:49:23.974Z,2.70
2023-05-15T02:51:57.154Z,2.47
2023-05-15T02:54:30.515Z,3.03
2023-05-15T02:57:03.743Z,2.70
2023-05-15T02:59:37.246Z,2.42
2023-05-15T03:02:11.862Z,2.35
2023-05-15T03:04:45.339Z,2.60
2023-05-15T03:07:18.501Z,2.70
2023-05-15T03:09:51.719Z,2.28
2023-05-15T03:12:24.961Z,2.40
2023-05-15T03:14:58.304Z,2.58
2023-05-15T03:17:32.950Z,2.58
2023-05-15T03:20:07.574Z,2.25
2023-05-15T03:22:40.937Z,2.70
2023-05-15T03:25:14.216Z,2.40
2023-05-15T03:27:47.425Z,2.47
2023-05-15T03:30:20.834Z,2.38
2023-05-15T03:32:57.550Z,2.83
2023-05-15T03:35:32.267Z,2.50
2023-05-15T03:38:05.513Z,2.40
2023-05-15T03:40:39.783Z,2.33
2023-05-15T03:43:12.996Z,2.03
2023-05-15T03:45:47.433Z,2.35
2023-05-15T03:48:22.030Z,2.25
2023-05-15T03:50:55.793Z,3.08
2023-05-15T03:53:29.183Z,2.97
2023-05-15T03:56:03.469Z,2.50
2023-05-15T03:58:37.058Z,2.17
2023-05-15T04:01:10.378Z,2.30
2023-05-15T04:03:44.975Z,2.83
2023-05-15T04:06:18.265Z,2.42
2023-05-15T04:08:51.635Z,2.60
2023-05-15T04:11:25.327Z,2.08
2023-05-15T04:13:58.520Z,2.42
2023-05-15T04:16:31.839Z,2.45
2023-05-15T04:19:06.467Z,2.13
2023-05-15T04:21:39.778Z,2.42
2023-05-15T04:24:13.328Z,2.40
2023-05-15T04:26:46.598Z,2.28
2023-05-15T04:29:19.809Z,2.30
2023-05-15T04:31:53.388Z,2.72
2023-05-15T04:34:29.387Z,2.53
2023-05-15T04:37:02.747Z,2.20
2023-05-15T04:39:35.948Z,2.90
2023-05-15T04:42:09.193Z,2.60
2023-05-15T04:44:42.893Z,2.75
2023-05-15T04:47:16.060Z,2.78
2023-05-15T04:49:51.037Z,2.13
2023-05-15T04:52:24.279Z,2.40
2023-05-15T04:54:57.531Z,2.28
2023-05-15T04:57:31.008Z,2.70
2023-05-15T05:00:10.218Z,2.50
2023-05-15T05:02:44.231Z,2.60
2023-05-15T05:05:18.967Z,2.47
2023-05-15T05:07:52.143Z,2.55
2023-05-15T05:10:25.374Z,2.60
2023-05-15T05:12:58.556Z,2.50
2023-05-15T05:15:31.763Z,2.67
2023-05-15T05:18:06.075Z,2.42
2023-05-15T05:20:40.690Z,2.80
2023-05-15T05:23:14.835Z,2.40
2023-05-15T05:25:48.031Z,2.80
2023-05-15T05:28:21.365Z,2.53
2023-05-15T05:30:54.588Z,2.20
2023-05-15T05:33:27.842Z,2.17
2023-05-15T05:36:02.430Z,2.55
2023-05-15T05:38:36.203Z,2.40
2023-05-15T05:41:09.484Z,2.35
2023-05-15T05:43:42.656Z,2.70
2023-05-15T05:46:15.884Z,2.28
2023-05-15T05:48:49.168Z,2.15
2023-05-15T05:51:23.757Z,2.58
2023-05-15T05:53:56.968Z,2.35
2023-05-15T05:56:30.664Z,2.40
2023-05-15T05:59:03.973Z,2.60
2023-05-15T06:01:37.315Z,2.80
2023-05-15T06:04:10.738Z,2.50
2023-05-15T06:06:45.302Z,2.67
2023-05-15T06:09:18.653Z,2.28
2023-05-15T06:11:52.331Z,2.30
2023-05-15T06:14:25.788Z,2.70
2023-05-15T06:16:59.103Z,2.50
2023-05-15T06:19:32.550Z,2.50
2023-05-15T06:22:07.482Z,3.50
2023-05-15T06:24:40.682Z,2.38
2023-05-15T06:27:13.882Z,2.60
2023-05-15T06:29:47.084Z,2.90
2023-05-15T06:32:20.312Z,2.63
2023-05-15T06:34:53.595Z,2.97
2023-05-15T06:37:28.905Z,2.92
2023-05-15T06:40:02.160Z,2.53
2023-05-15T06:42:35.550Z,2.58
2023-05-15T06:45:10.242Z,2.53
2023-05-15T06:47:43.512Z,2.90
2023-05-15T06:50:16.801Z,2.85
2023-05-15T06:52:51.411Z,2.25
2023-05-15T06:55:24.884Z,2.42
2023-05-15T07:00:31.521Z,2.15
2023-05-15T07:03:04.959Z,2.85
2023-05-15T07:05:38.189Z,2.88
2023-05-15T07:08:12.803Z,2.78
2023-05-15T07:10:46.392Z,2.65
2023-05-15T07:13:21.019Z,2.60
2023-05-15T07:15:54.270Z,2.40
2023-05-15T07:18:27.569Z,2.60
2023-05-15T07:21:00.811Z,2.60
2023-05-15T07:23:35.466Z,2.78
2023-05-15T07:26:14.093Z,2.25
2023-05-15T07:28:50.774Z,2.83
2023-05-15T07:31:24.037Z,2.67
2023-05-15T07:33:57.323Z,2.60
2023-05-15T07:36:30.746Z,2.72
2023-05-15T07:39:06.046Z,3.15
2023-05-15T07:41:39.346Z,2.30
2023-05-15T07:44:12.589Z,2.92
2023-05-15T07:46:46.252Z,2.65
2023-05-15T07:49:19.525Z,2.85
2023-05-15T07:51:52.702Z,3.08
2023-05-15T07:54:27.234Z,2.78
2023-05-15T07:57:00.457Z,2.60
2023-05-15T07:59:33.751Z,2.40
2023-05-15T08:02:07.076Z,2.47
2023-05-15T08:04:40.436Z,2.90
2023-05-15T08:07:14.895Z,2.90
2023-05-15T08:09:49.478Z,2.88
2023-05-15T08:12:23.635Z,2.60
2023-05-15T08:14:57.535Z,2.33
2023-05-15T08:20:05.039Z,2.75
2023-05-15T08:22:38.296Z,2.60
2023-05-15T08:25:13.111Z,2.95
2023-05-15T08:27:46.335Z,2.50
2023-05-15T08:30:19.666Z,2.55
2023-05-15T08:32:53.005Z,2.78
2023-05-15T08:35:26.510Z,2.47
2023-05-15T08:40:39.869Z,3.22
2023-05-15T08:43:16.417Z,2.75
2023-05-15T08:45:50.499Z,2.95
2023-05-15T08:48:26.183Z,2.17
2023-05-15T08:51:01.578Z,2.67
2023-05-15T08:53:34.875Z,2.85
2023-05-15T08:56:09.751Z,2.85
2023-05-15T08:58:43.818Z,3.78
2023-05-15T09:01:17.409Z,2.95
2023-05-15T09:03:50.697Z,2.95
2023-05-15T09:06:25.522Z,2.50
2023-05-15T09:09:00.792Z,2.70
2023-05-15T09:11:36.250Z,3.00
2023-05-15T09:14:09.448Z,2.78
2023-05-15T09:16:42.723Z,2.65
2023-05-15T09:19:16.922Z,3.35
2023-05-15T09:21:50.482Z,3.25
2023-05-15T09:24:25.065Z,2.45
2023-05-15T09:27:07.256Z,3.10
2023-05-15T09:29:40.989Z,2.88
2023-05-15T09:32:16.176Z,3.17
2023-05-15T09:34:49.456Z,2.83
2023-05-15T09:37:31.079Z,2.88
2023-05-15T09:40:12.144Z,2.72
2023-05-15T09:42:52.859Z,2.90
2023-05-15T09:45:29.803Z,2.58
2023-05-15T09:48:06.366Z,2.50
2023-05-15T09:50:41.010Z,3.28
2023-05-15T09:53:14.525Z,2.40
2023-05-15T09:55:49.650Z,2.90
2023-05-15T09:58:24.329Z,2.78
2023-05-15T10:01:00.805Z,2.60
2023-05-15T10:03:34.088Z,2.60
2023-05-15T10:06:07.775Z,2.88
2023-05-15T10:08:42.137Z,3.15
2023-05-15T10:11:15.917Z,2.80
2023-05-15T10:13:50.856Z,3.28
2023-05-15T10:16:24.742Z,2.55
2023-05-15T10:21:34.583Z,2.80
2023-05-15T10:24:09.048Z,2.90
2023-05-15T10:26:43.926Z,3.15
2023-05-15T10:29:21.224Z,3.08
2023-05-15T10:31:55.630Z,2.92
2023-05-15T10:34:29.884Z,2.85
2023-05-15T10:37:03.574Z,3.38
2023-05-15T10:39:39.986Z,2.63
2023-05-15T10:42:13.866Z,2.70
2023-05-15T10:47:22.237Z,2.53
2023-05-15T10:49:55.684Z,3.20
2023-05-15T10:52:29.995Z,2.67
2023-05-15T10:55:04.417Z,2.75
2023-05-15T10:57:38.197Z,2.50
2023-05-15T11:00:28.996Z,2.60
2023-05-15T11:03:03.432Z,3.60
2023-05-15T11:06:10.868Z,2.42
2023-05-15T11:08:45.144Z,2.78
2023-05-15T11:11:55.986Z,3.25
2023-05-15T11:14:30.403Z,3.92
2023-05-15T11:17:07.609Z,2.85
2023-05-15T11:19:58.356Z,2.83
2023-05-15T11:22:33.469Z,2.85
2023-05-15T11:25:09.793Z,2.78
2023-05-15T11:27:44.634Z,2.70
2023-05-15T11:30:20.649Z,2.80
2023-05-15T11:32:58.554Z,2.40
2023-05-15T11:35:34.662Z,2.70
2023-05-15T11:38:13.805Z,2.97
2023-05-15T11:40:48.985Z,2.38
2023-05-15T11:43:26.058Z,2.90
2023-05-15T11:46:00.611Z,2.75
2023-05-15T11:48:36.372Z,2.50
2023-05-15T11:51:21.737Z,2.60
2023-05-15T11:53:56.595Z,2.33
2023-05-15T11:56:29.864Z,2.67
2023-05-15T11:59:03.343Z,3.17
2023-05-15T12:01:41.262Z,2.63
2023-05-15T12:04:17.228Z,2.33
2023-05-15T12:06:50.811Z,2.70
2023-05-15T12:09:27.380Z,2.58
2023-05-15T12:12:00.797Z,3.08
2023-05-15T12:14:34.140Z,2.40
2023-05-15T12:17:07.390Z,3.17
2023-05-15T12:19:43.489Z,2.92
2023-05-15T12:22:18.924Z,2.60
2023-05-15T12:24:52.405Z,2.55
2023-05-15T12:27:26.504Z,3.38
2023-05-15T12:30:00.206Z,2.38
2023-05-15T12:32:36.037Z,2.65
2023-05-15T12:35:12.839Z,2.55
2023-05-15T12:37:46.646Z,2.33
2023-05-15T12:42:55.537Z,3.17
2023-05-15T12:45:28.781Z,2.40
2023-05-15T12:48:03.456Z,2.20
2023-05-15T12:50:38.975Z,2.38
2023-05-15T12:53:14.648Z,2.63
2023-05-15T12:55:48.815Z,2.67
2023-05-15T12:58:22.123Z,2.22
2023-05-15T13:00:55.371Z,2.60
2023-05-15T13:03:29.890Z,2.35
2023-05-15T13:06:06.991Z,2.90
2023-05-15T13:08:44.255Z,2.28
2023-05-15T13:11:19.043Z,2.88
2023-05-15T13:16:29.989Z,2.45
2023-05-15T13:19:03.440Z,2.42
2023-05-15T13:21:38.085Z,2.60
2023-05-15T13:24:11.372Z,2.33
2023-05-15T13:26:44.543Z,2.20
2023-05-15T13:29:17.745Z,2.22
2023-05-15T13:31:51.066Z,2.90
2023-05-15T13:34:24.351Z,2.50
2023-05-15T13:36:58.927Z,2.50
2023-05-15T13:39:32.248Z,2.55
2023-05-15T13:42:05.764Z,2.85
2023-05-15T13:44:39.252Z,2.78
2023-05-15T13:47:12.513Z,2.40
2023-05-15T13:49:46.967Z,2.55
2023-05-15T13:52:21.534Z,2.72
2023-05-15T13:54:55.579Z,2.58
2023-05-15T13:57:28.873Z,2.28
2023-05-15T14:00:02.096Z,2.40
2023-05-15T14:02:37.912Z,2.42
2023-05-15T14:05:12.678Z,2.75
2023-05-15T14:07:47.293Z,2.38
2023-05-15T14:10:20.575Z,2.35
2023-05-15T14:12:53.831Z,2.92
2023-05-15T14:15:27.145Z,2.17
2023-05-15T14:18:00.351Z,2.88
2023-05-15T14:20:33.582Z,2.22
2023-05-15T14:23:08.142Z,2.50
2023-05-15T14:25:42.364Z,2.63
2023-05-15T14:28:15.540Z,2.13
2023-05-15T14:30:48.772Z,2.72
2023-05-15T14:33:21.944Z,2.13
2023-05-15T14:35:55.256Z,2.63
2023-05-15T14:38:29.793Z,2.80
2023-05-15T14:41:03.087Z,1.95
2023-05-15T14:43:36.238Z,2.17
2023-05-15T14:46:11.291Z,2.38
2023-05-15T14:48:44.914Z,2.45
2023-05-15T14:51:19.904Z,2.25
2023-05-15T14:53:54.722Z,2.40
2023-05-15T14:56:27.948Z,2.38
2023-05-15T14:59:01.217Z,2.67
2023-05-15T15:01:34.473Z,2.50
2023-05-15T15:04:07.862Z,2.45
2023-05-15T15:06:41.304Z,2.60
2023-05-15T15:09:15.940Z,2.47
2023-05-15T15:11:49.163Z,2.38
2023-05-15T15:14:22.386Z,2.38
2023-05-15T15:16:55.730Z,2.80
2023-05-15T15:19:29.130Z,2.45
2023-05-15T15:22:02.565Z,2.17
2023-05-15T15:24:37.132Z,2.40
2023-05-15T15:27:10.315Z,2.30
2023-05-15T15:29:43.601Z,2.20
2023-05-15T15:32:16.863Z,2.80
2023-05-15T15:34:50.410Z,2.85
2023-05-15T15:37:23.850Z,2.75
2023-05-15T15:39:58.407Z,2.97
2023-05-15T15:42:31.701Z,2.38
2023-05-15T15:45:05.832Z,2.97
2023-05-15T15:47:39.183Z,2.97
2023-05-15T15:50:12.473Z,3.08
2023-05-15T15:52:46.731Z,3.20
2023-05-15T15:55:21.356Z,3.25
2023-05-15T15:57:54.571Z,3.50
2023-05-15T16:00:27.991Z,3.28
2023-05-15T16:03:01.326Z,3.97
2023-05-15T16:05:34.674Z,3.58
2023-05-15T16:08:07.872Z,3.22
2023-05-15T16:10:42.515Z,3.45
2023-05-15T16:13:16.068Z,3.40
2023-05-15T16:15:49.298Z,3.17
2023-05-15T16:18:23.098Z,3.72
2023-05-15T16:20:56.539Z,4.15
2023-05-15T16:23:29.813Z,4.63
2023-05-15T16:26:04.731Z,3.22
2023-05-15T16:28:38.152Z,3.42
2023-05-15T16:31:11.497Z,3.80
2023-05-15T16:33:44.863Z,3.63
2023-05-15T16:36:18.316Z,4.22
2023-05-15T16:38:51.611Z,4.05
2023-05-15T16:41:26.418Z,3.38
2023-05-15T16:43:59.621Z,3.70
2023-05-15T16:46:33.040Z,5.03
2023-05-15T16:49:06.502Z,3.67
2023-05-15T16:51:39.726Z,3.80
2023-05-15T16:54:12.937Z,3.50
2023-05-15T16:56:47.581Z,3.80
2023-05-15T16:59:20.781Z,3.67
2023-05-15T17:01:53.991Z,3.45
2023-05-15T17:04:27.268Z,3.58
2023-05-15T17:07:00.481Z,4.35
2023-05-15T17:09:34.437Z,3.50
2023-05-15T17:12:10.417Z,4.32
2023-05-15T17:14:43.630Z,4.50
2023-05-15T17:17:16.821Z,4.00
2023-05-15T17:19:50.092Z,4.65
2023-05-15T17:22:24.032Z,3.78
2023-05-15T17:24:57.296Z,3.20
2023-05-15T17:27:32.346Z,3.67
2023-05-15T17:30:06.660Z,4.55
2023-05-15T17:32:40.601Z,3.92
2023-05-15T17:35:13.863Z,4.30
2023-05-15T17:37:47.059Z,3.80
2023-05-15T17:40:20.434Z,3.92
2023-05-15T17:42:55.083Z,3.70
2023-05-15T17:45:28.949Z,4.72
2023-05-15T17:50:39.095Z,4.32
2023-05-15T17:53:12.328Z,4.45
2023-05-15T17:55:45.602Z,3.88
2023-05-15T17:58:21.237Z,4.00
2023-05-15T18:00:54.565Z,3.80
2023-05-15T18:03:27.951Z,3.88
2023-05-15T18:06:01.332Z,3.95
2023-05-15T18:08:34.687Z,4.70
2023-05-15T18:11:17.565Z,3.55
2023-05-15T18:13:56.645Z,4.00
2023-05-15T18:16:31.262Z,4.05
2023-05-15T18:19:04.661Z,3.58
2023-05-15T18:21:38.277Z,3.13
2023-05-15T18:24:11.669Z,3.80
2023-05-15T18:26:44.926Z,4.05
2023-05-15T18:29:19.454Z,3.95
2023-05-15T18:31:52.840Z,3.78
2023-05-15T18:34:26.120Z,3.85
2023-05-15T18:36:59.363Z,3.58
2023-05-15T18:39:32.586Z,3.75
2023-05-15T18:42:06.437Z,3.42
2023-05-15T18:44:41.255Z,3.92
2023-05-15T18:47:14.576Z,3.88
2023-05-15T18:49:47.943Z,3.92
2023-05-15T18:52:21.502Z,3.90
2023-05-15T18:54:54.920Z,3.65
2023-05-15T18:57:28.230Z,4.18
2023-05-15T19:00:03.627Z,3.97
2023-05-15T19:02:40.124Z,3.70
2023-05-15T19:05:13.744Z,4.18
2023-05-15T19:07:47.006Z,4.45
2023-05-15T19:10:20.444Z,3.75
2023-05-15T19:12:53.718Z,3.25
2023-05-15T19:15:28.345Z,3.10
2023-05-15T19:18:01.621Z,3.85
2023-05-15T19:20:35.756Z,3.63
2023-05-15T19:23:09.758Z,3.30
2023-05-15T19:28:18.252Z,3.35
2023-05-15T19:30:52.827Z,3.75
2023-05-15T19:33:26.066Z,3.58
2023-05-15T19:35:59.285Z,3.15
2023-05-15T19:38:32.527Z,3.65
2023-05-15T19:41:05.790Z,3.83
2023-05-15T19:43:39.749Z,3.17
2023-05-15T19:46:14.528Z,4.65
2023-05-15T19:48:47.973Z,4.57
2023-05-15T19:51:21.224Z,3.47
2023-05-15T19:53:54.527Z,4.50
2023-05-15T19:56:27.720Z,3.63
2023-05-15T19:59:00.945Z,3.83
2023-05-15T20:01:35.724Z,3.67
2023-05-15T20:04:09.075Z,3.30
2023-05-15T20:06:42.366Z,4.00
2023-05-15T20:09:15.584Z,3.78
2023-05-15T20:11:48.889Z,3.33
2023-05-15T20:14:22.083Z,3.40
2023-05-15T20:16:56.932Z,3.53
2023-05-15T20:19:33.206Z,3.97
2023-05-15T20:22:06.676Z,3.15
2023-05-15T20:24:40.285Z,3.85
2023-05-15T20:27:13.574Z,3.28
2023-05-15T20:29:46.913Z,4.45
2023-05-15T20:32:21.496Z,3.88
2023-05-15T20:34:56.033Z,3.60
2023-05-15T20:37:30.289Z,3.45
2023-05-15T20:40:05.291Z,3.33
2023-05-15T20:42:38.571Z,3.55
2023-05-15T20:45:12.183Z,3.85
2023-05-15T20:47:46.915Z,3.85
2023-05-15T20:50:20.598Z,3.65
2023-05-15T20:52:54.386Z,3.80
2023-05-15T20:58:00.770Z,3.42
2023-05-15T21:00:34.154Z,3.63
2023-05-15T21:03:09.384Z,3.83
2023-05-15T21:05:42.694Z,3.53
2023-05-15T21:08:16.167Z,4.13
2023-05-15T21:10:52.977Z,3.45
2023-05-15T21:13:26.202Z,3.20
2023-05-15T21:15:59.392Z,3.00
2023-05-15T21:18:34.008Z,3.33
2023-05-15T21:21:07.681Z,3.75
2023-05-15T21:23:40.934Z,3.22
2023-05-15T21:26:14.378Z,3.30
2023-05-15T21:28:47.537Z,3.58
2023-05-15T21:31:20.885Z,3.30
2023-05-15T21:33:55.714Z,3.22
2023-05-15T21:36:28.968Z,2.58
2023-05-15T21:39:02.176Z,3.60
2023-05-15T21:41:35.437Z,4.35
2023-05-15T21:44:08.665Z,4.05
2023-05-15T21:46:42.160Z,3.05
2023-05-15T21:49:16.810Z,3.00
2023-05-15T21:51:50.066Z,2.90
2023-05-15T21:54:23.304Z,3.25
2023-05-15T21:56:56.579Z,3.05
2023-05-15T21:59:29.803Z,3.10
2023-05-15T22:02:03.291Z,3.22
2023-05-15T22:04:38.026Z,3.17
2023-05-15T22:07:11.296Z,2.53
2023-05-15T22:09:45.028Z,3.47
2023-05-15T22:14:58.973Z,2.38
2023-05-15T22:17:34.474Z,2.78
2023-05-15T22:20:11.553Z,4.78
2023-05-15T22:22:44.795Z,3.25
2023-05-15T22:25:18.122Z,3.15
2023-05-15T22:27:51.657Z,3.38
2023-05-15T22:30:24.977Z,2.30
2023-05-15T22:32:58.327Z,3.30
2023-05-15T22:35:32.951Z,2.88
2023-05-15T22:38:07.454Z,2.42
2023-05-15T22:40:41.179Z,2.58
2023-05-15T22:43:14.414Z,3.17
2023-05-15T22:45:47.746Z,2.47
2023-05-15T22:48:21.043Z,2.65
2023-05-15T22:50:55.687Z,2.65
2023-05-15T22:53:28.908Z,2.63
2023-05-15T22:56:02.144Z,3.10
2023-05-15T22:58:35.437Z,2.65
2023-05-15T23:01:08.859Z,3.58
2023-05-15T23:03:42.338Z,2.88
2023-05-15T23:06:19.008Z,2.65
2023-05-15T23:08:52.271Z,2.83
2023-05-15T23:11:25.620Z,3.22
2023-05-15T23:13:59.186Z,2.90
2023-05-15T23:16:32.433Z,3.20
2023-05-15T23:19:05.756Z,2.85
2023-05-15T23:21:40.409Z,2.85
2023-05-15T23:24:13.630Z,2.67
2023-05-15T23:26:47.091Z,2.78
2023-05-15T23:29:20.348Z,2.90
2023-05-15T23:31:53.616Z,2.85
2023-05-15T23:34:26.960Z,2.70
2023-05-15T23:37:01.465Z,2.08
2023-05-15T23:39:36.107Z,3.13
2023-05-15T23:42:10.011Z,3.75
2023-05-15T23:44:43.315Z,2.55
2023-05-15T23:47:16.731Z,2.90
2023-05-15T23:49:50.112Z,2.47
2023-05-15T23:52:24.787Z,2.35
2023-05-15T23:54:58.188Z,2.50
2023-05-15T23:57:31.499Z,2.55
